Hlavní strana
METAR-TAF:

METAR-TAF

Letiště :

Luni

Sarzana, Itálie

zeměpisná šířka: 44-05N, zeměpisná délka: 009-59E, výška: 9 m

Aktuální stav počasí

Zpráva byla vytvořena před 1 hodinou a 6 minutami, v 09:55 UTC
Jihojihovýchodní vítr 6 kt, proměnlivý mezi východojihovýchodním a jižním
Teplota 33°C
Vlhkost vzduchu 49%
Tlak 1014 hPa
Viditelnost 10 km a více
Skoro jasno ve výšce 2000 ft

METAR: LIQW 200955Z 15006KT 110V180 9999 FEW020 33/21 Q1014 RMK FEW VIS MIN 9999 WIND THR18 14005KT BLU

Čas: 13:01 (11:01 UTC)


TAF: chybějící

Stav a předpovědi počasí z více než 4 000 letišť (zprávy METAR a TAF).

Červené a žluté tečky na mapě představují dostupné meteorologické stanice.

Když kurzor umístíte na tečku, zobrazí se název stanice.

Pak kliknutím zobrazíte stav a předpověď počasí.

Chcete-li změnit mapu, kliknutím na zelené tlačítko se znaménkem +mapu přiblížíte, kliknutím na zelené tlačítko se znaménkem – mapu oddálíte a kliknutím na zelené šipky přejdete na sousední mapy.


METAR-TAF: